Meteo Giornale » Osservazioni meteo Italia » Catania-Sigonella

ore: 05:55 - Osservazioni Meteo Catania-Sigonella
Lat. 37° 24' N Lon. 14° 55' E Alt. 22 metri s.l.m.

sereno Europe/Rome

24 °C

Sereno

Temp. 24 Ore

24 °C

37 °C

Nord

0 Km/h

Dew point 24 °C

Umidità 100 %

Visibilità  7 Km

Il sole sorge alle ore 06:17

Il sole tramonta alle ore 19:50

Data e Ora Cielo e Fenomeni T °C DP °C Um. % Pres. hPa Vis. km Vento km/h
Oggi h: 05:55 sereno Sereno 24 24 100 1011 7 N 0
Oggi h: 04:55 sereno Sereno 25 25 100 1011 10 O 7.4
Oggi h: 03:55 sereno Sereno 25 25 100 1012 10 N 0
Oggi h: 02:55 sereno Sereno 25 25 100 1012 10 N 0
Oggi h: 01:55 sereno Sereno 26 26 100 1012 10 N 0
Oggi h: 00:55 sereno Sereno 27 27 100 1013 10 N 0
Ieri h: 23:55 sereno Sereno 28 28 100 1013 10 N 0
Ieri h: 22:55 sereno Sereno 28 28 100 1013 10 N 0
Ieri h: 21:55 sereno Sereno 29 29 100 1012 10 N 0
Ieri h: 20:55 sereno Sereno 29 29 100 1012 10 N 0
Ieri h: 19:55 sereno Sereno 31 30 94 1011 10 N 0
Ieri h: 18:55 sereno Sereno 32 29 84 1011 10 N 0
Ieri h: 17:55 sereno Sereno 33 24 59 1011 8 N 0
Ieri h: 16:55 poco_nuvoloso Poco Nuvoloso 34 22 49 1012 8 N 0
Ieri h: 15:55 poco_nuvoloso Poco Nuvoloso 34 20 43 1011 8 N 0
Ieri h: 14:55 nuvoloso Nuvoloso 34 19 41 1012 8 N 0
Ieri h: 13:55 poco_nuvoloso Poco Nuvoloso 35 19 39 1012 8 N 0
Ieri h: 12:55 poco_nuvoloso Poco Nuvoloso 34 21 46 1012 8 N 0
Ieri h: 11:55 poco_nuvoloso Poco Nuvoloso 37 14 25 1012 8 N 0
Ieri h: 10:55 poco_nuvoloso Poco Nuvoloso 35 16 32 1012 10 N 0
Ieri h: 09:55 poco_nuvoloso Poco Nuvoloso 32 19 46 1012 10 N 0
Ieri h: 08:55 sereno Sereno 29 23 70 1012 10 N 0
Ieri h: 07:55 sereno Sereno 26 26 100 1012 10 N 0
Ieri h: 06:55 sereno Sereno 25 25 100 1012 10 N 0